createdAt,value
2018-05-31T00:00:45.507Z,38.90
2018-05-31T00:03:11.964Z,38.85
2018-05-31T00:05:38.964Z,38.89
2018-05-31T00:08:06.383Z,38.90
2018-05-31T00:10:32.777Z,38.91
2018-05-31T00:12:59.223Z,38.91
2018-05-31T00:15:25.823Z,38.96
2018-05-31T00:17:52.173Z,38.96
2018-05-31T00:20:18.569Z,38.91
2018-05-31T00:22:44.906Z,38.89
2018-05-31T00:25:11.381Z,38.91
2018-05-31T00:27:37.685Z,38.95
2018-05-31T00:30:04.033Z,38.94
2018-05-31T00:32:30.538Z,38.94
2018-05-31T00:34:56.934Z,38.88
2018-05-31T00:37:23.339Z,38.92
2018-05-31T00:39:49.777Z,38.95
2018-05-31T00:42:16.160Z,38.99
2018-05-31T00:44:42.606Z,39.03
2018-05-31T00:47:08.988Z,39.02
2018-05-31T00:49:35.364Z,39.01
2018-05-31T00:52:01.772Z,39.04
2018-05-31T00:54:28.152Z,39.06
2018-05-31T00:56:54.601Z,39.14
2018-05-31T00:59:21.003Z,39.15
2018-05-31T01:01:47.366Z,39.19
2018-05-31T01:04:14.000Z,38.89
2018-05-31T01:06:40.470Z,38.99
2018-05-31T01:09:06.909Z,39.12
2018-05-31T01:11:33.285Z,39.27
2018-05-31T01:13:59.804Z,39.28
2018-05-31T01:16:26.532Z,39.37
2018-05-31T01:18:52.948Z,39.36
2018-05-31T01:21:19.422Z,39.43
2018-05-31T01:23:46.060Z,39.44
2018-05-31T01:26:12.562Z,39.43
2018-05-31T01:28:39.043Z,39.43
2018-05-31T01:31:05.622Z,39.31
2018-05-31T01:33:31.976Z,39.27
2018-05-31T01:35:59.414Z,39.20
2018-05-31T01:38:26.144Z,39.25
2018-05-31T01:40:53.053Z,39.14
2018-05-31T01:43:19.446Z,39.10
2018-05-31T01:45:45.795Z,39.17
2018-05-31T01:48:12.338Z,39.12
2018-05-31T01:50:38.712Z,39.21
2018-05-31T01:53:05.083Z,39.10
2018-05-31T01:55:31.492Z,39.06
2018-05-31T01:57:58.383Z,39.06
2018-05-31T02:00:24.837Z,39.10
2018-05-31T02:02:51.292Z,39.11
2018-05-31T02:05:17.827Z,39.10
2018-05-31T02:07:44.208Z,39.11
2018-05-31T02:10:10.573Z,39.10
2018-05-31T02:12:37.122Z,39.01
2018-05-31T02:15:03.473Z,39.12
2018-05-31T02:17:29.825Z,39.15
2018-05-31T02:19:56.276Z,39.00
2018-05-31T02:22:22.679Z,39.01
2018-05-31T02:24:49.078Z,38.91
2018-05-31T02:27:15.551Z,38.97
2018-05-31T02:29:41.928Z,38.95
2018-05-31T02:32:08.423Z,38.91
2018-05-31T02:34:34.916Z,38.93
2018-05-31T02:37:01.315Z,39.01
2018-05-31T02:39:27.815Z,39.00
2018-05-31T02:41:54.349Z,38.93
2018-05-31T02:44:20.794Z,38.98
2018-05-31T02:46:47.238Z,39.06
2018-05-31T02:49:13.607Z,38.97
2018-05-31T02:51:40.176Z,39.00
2018-05-31T02:54:06.625Z,38.99
2018-05-31T02:56:33.059Z,38.94
2018-05-31T02:58:59.457Z,38.93
2018-05-31T03:01:25.957Z,38.94
2018-05-31T03:03:52.316Z,38.97
2018-05-31T03:06:18.798Z,38.93
2018-05-31T03:08:45.554Z,38.94
2018-05-31T03:11:11.967Z,38.85
2018-05-31T03:13:38.340Z,38.90
2018-05-31T03:16:05.021Z,38.89
2018-05-31T03:18:31.472Z,38.83
2018-05-31T03:20:57.836Z,38.81
2018-05-31T03:23:24.242Z,38.79
2018-05-31T03:25:50.732Z,38.77
2018-05-31T03:28:17.113Z,38.72
2018-05-31T03:30:43.581Z,38.62
2018-05-31T03:33:09.977Z,38.50
2018-05-31T03:35:36.408Z,38.40
2018-05-31T03:38:03.016Z,38.38
2018-05-31T03:40:29.395Z,38.30
2018-05-31T03:42:55.815Z,38.30
2018-05-31T03:45:22.308Z,38.09
2018-05-31T03:47:48.708Z,38.05
2018-05-31T03:50:15.145Z,37.88
2018-05-31T03:52:41.534Z,37.75
2018-05-31T03:55:07.896Z,37.85
2018-05-31T03:57:34.280Z,37.69
2018-05-31T04:00:00.687Z,37.69
2018-05-31T04:02:27.080Z,37.68
2018-05-31T04:04:53.432Z,37.53
2018-05-31T04:07:19.769Z,37.58
2018-05-31T04:09:46.183Z,37.67
2018-05-31T04:12:12.613Z,37.51
2018-05-31T04:14:39.046Z,37.48
2018-05-31T04:17:05.454Z,37.29
2018-05-31T04:19:31.810Z,37.27
2018-05-31T04:21:58.333Z,37.26
2018-05-31T04:24:24.973Z,37.22
2018-05-31T04:26:51.403Z,37.24
2018-05-31T04:29:17.831Z,37.12
2018-05-31T04:31:44.496Z,37.06
2018-05-31T04:34:10.949Z,37.02
2018-05-31T04:36:37.336Z,37.10
2018-05-31T04:39:03.784Z,37.06
2018-05-31T04:41:30.255Z,37.06
2018-05-31T04:43:56.600Z,37.09
2018-05-31T04:46:22.949Z,37.03
2018-05-31T04:48:49.344Z,37.04
2018-05-31T04:51:15.726Z,37.04
2018-05-31T04:53:42.132Z,37.07
2018-05-31T04:56:08.497Z,37.05
2018-05-31T04:58:34.957Z,37.00
2018-05-31T05:01:01.370Z,37.01
2018-05-31T05:03:27.798Z,37.00
2018-05-31T05:05:54.448Z,36.98
2018-05-31T05:08:20.844Z,37.20
2018-05-31T05:10:47.566Z,36.95
2018-05-31T05:13:14.728Z,37.05
2018-05-31T05:15:41.200Z,36.98
2018-05-31T05:18:07.600Z,37.01
2018-05-31T05:20:33.960Z,36.94
2018-05-31T05:23:00.335Z,37.07
2018-05-31T05:25:26.738Z,37.11
2018-05-31T05:27:53.167Z,37.07
2018-05-31T05:30:19.577Z,37.13
2018-05-31T05:32:45.930Z,37.17
2018-05-31T05:35:13.352Z,37.17
2018-05-31T05:37:39.691Z,37.12
2018-05-31T05:40:06.077Z,37.07
2018-05-31T05:42:33.208Z,36.91
2018-05-31T05:44:59.548Z,36.90
2018-05-31T05:47:25.980Z,36.92
2018-05-31T05:49:52.350Z,36.96
2018-05-31T05:52:18.775Z,36.99
2018-05-31T05:54:45.140Z,36.93
2018-05-31T05:57:11.612Z,37.02
2018-05-31T05:59:37.974Z,37.06
2018-05-31T06:02:04.315Z,37.04
2018-05-31T06:04:30.701Z,37.11
2018-05-31T06:06:57.139Z,37.15
2018-05-31T06:09:23.981Z,37.20
2018-05-31T06:11:50.449Z,37.19
2018-05-31T06:14:16.777Z,37.50
2018-05-31T06:16:43.154Z,37.28
2018-05-31T06:19:09.644Z,37.18
2018-05-31T06:21:36.044Z,37.12
2018-05-31T06:24:02.389Z,37.17
2018-05-31T06:26:28.894Z,37.17
2018-05-31T06:28:55.235Z,37.24
2018-05-31T06:31:21.594Z,37.03
2018-05-31T06:33:47.993Z,37.21
2018-05-31T06:36:14.450Z,37.14
2018-05-31T06:38:41.086Z,37.08
2018-05-31T06:41:07.536Z,36.95
2018-05-31T06:43:33.909Z,36.90
2018-05-31T06:46:00.371Z,36.97
2018-05-31T06:48:26.720Z,37.12
2018-05-31T06:50:53.083Z,37.01
2018-05-31T06:53:19.515Z,36.89
2018-05-31T06:55:45.907Z,36.84
2018-05-31T06:58:12.241Z,36.88
2018-05-31T07:00:38.602Z,36.88
2018-05-31T07:03:05.336Z,36.92
2018-05-31T07:05:31.785Z,37.33
2018-05-31T07:07:58.349Z,37.00
2018-05-31T07:10:25.388Z,36.99
2018-05-31T07:12:51.753Z,37.05
2018-05-31T07:15:18.458Z,37.08
2018-05-31T07:17:45.964Z,37.28
2018-05-31T07:20:12.539Z,37.15
2018-05-31T07:22:39.133Z,37.29
2018-05-31T07:25:05.535Z,37.52
2018-05-31T07:27:31.921Z,37.21
2018-05-31T07:29:58.499Z,37.34
2018-05-31T07:32:25.137Z,37.10
2018-05-31T07:34:51.568Z,37.18
2018-05-31T07:37:17.972Z,37.08
2018-05-31T07:39:44.859Z,37.20
2018-05-31T07:42:12.209Z,36.95
2018-05-31T07:44:39.115Z,37.28
2018-05-31T07:47:05.892Z,37.14
2018-05-31T07:49:32.258Z,37.25
2018-05-31T07:51:59.272Z,37.06
2018-05-31T07:54:25.984Z,37.00
2018-05-31T07:56:52.446Z,36.72
2018-05-31T07:59:19.061Z,36.82
2018-05-31T08:01:45.700Z,36.71
2018-05-31T08:04:12.164Z,36.69
2018-05-31T08:06:39.144Z,36.43
2018-05-31T08:09:05.661Z,36.14
2018-05-31T08:11:32.573Z,36.01
2018-05-31T08:13:59.324Z,35.94
2018-05-31T08:16:25.773Z,35.75
2018-05-31T08:18:52.255Z,35.25
2018-05-31T08:21:18.811Z,35.27
2018-05-31T08:23:45.376Z,35.04
2018-05-31T08:26:12.323Z,34.97
2018-05-31T08:28:39.030Z,34.33
2018-05-31T08:31:05.782Z,35.01
2018-05-31T08:33:33.775Z,34.59
2018-05-31T08:36:00.760Z,34.60
2018-05-31T08:38:27.266Z,34.51
2018-05-31T08:40:53.845Z,34.36
2018-05-31T08:43:20.675Z,34.19
2018-05-31T08:45:47.160Z,33.92
2018-05-31T08:48:13.655Z,33.89
2018-05-31T08:50:40.201Z,33.56
2018-05-31T08:53:06.574Z,33.29
2018-05-31T08:55:34.270Z,33.54
2018-05-31T08:58:01.065Z,32.89
2018-05-31T09:00:27.586Z,33.11
2018-05-31T09:02:53.992Z,33.16
2018-05-31T09:05:20.713Z,32.86
2018-05-31T09:07:47.407Z,32.52
2018-05-31T09:10:13.961Z,32.68
2018-05-31T09:12:40.945Z,32.50
2018-05-31T09:15:07.615Z,32.70
2018-05-31T09:17:34.260Z,32.36
2018-05-31T09:20:02.075Z,32.60
2018-05-31T09:22:28.540Z,32.54
2018-05-31T09:24:55.167Z,32.62
2018-05-31T09:27:21.874Z,32.70
2018-05-31T09:29:48.663Z,32.60
2018-05-31T09:32:15.927Z,32.46
2018-05-31T09:34:42.541Z,32.74
2018-05-31T09:37:09.133Z,32.77
2018-05-31T09:39:35.712Z,32.69
2018-05-31T09:42:04.843Z,32.53
2018-05-31T09:44:31.755Z,32.84
2018-05-31T09:47:02.077Z,32.70
2018-05-31T09:49:29.039Z,32.72
2018-05-31T09:51:56.064Z,32.38
2018-05-31T09:54:22.724Z,31.92
2018-05-31T09:56:49.172Z,32.25
2018-05-31T09:59:15.815Z,31.92
2018-05-31T10:01:43.194Z,32.38
2018-05-31T10:04:10.028Z,32.17
2018-05-31T10:06:37.143Z,32.19
2018-05-31T10:09:04.346Z,31.79
2018-05-31T10:11:31.057Z,31.67
2018-05-31T10:13:57.745Z,31.78
2018-05-31T10:16:24.380Z,31.73
2018-05-31T10:18:52.079Z,31.57
2018-05-31T10:21:20.309Z,31.82
2018-05-31T10:23:46.751Z,32.15
2018-05-31T10:26:13.250Z,31.85
2018-05-31T10:28:39.973Z,31.81
2018-05-31T10:31:06.503Z,30.93
2018-05-31T10:33:33.449Z,30.89
2018-05-31T10:36:00.250Z,30.87
2018-05-31T10:38:29.181Z,30.76
2018-05-31T10:40:55.709Z,30.59
2018-05-31T10:43:22.199Z,30.32
2018-05-31T10:45:48.837Z,30.44
2018-05-31T10:48:18.956Z,30.56
2018-05-31T10:50:54.333Z,30.67
2018-05-31T10:53:21.406Z,30.64
2018-05-31T10:55:48.055Z,30.03
2018-05-31T10:58:14.868Z,30.25
2018-05-31T11:00:41.714Z,29.83
2018-05-31T11:03:08.333Z,28.57
2018-05-31T11:05:35.092Z,29.83
2018-05-31T11:08:01.977Z,30.03
2018-05-31T11:15:47.022Z,28.57
2018-05-31T11:18:14.018Z,29.01
2018-05-31T11:20:41.070Z,29.48
2018-05-31T11:23:07.910Z,29.77
2018-05-31T11:25:35.255Z,29.61
2018-05-31T11:28:05.646Z,28.75
2018-05-31T11:33:11.299Z,29.71
2018-05-31T11:35:37.818Z,29.61
2018-05-31T11:38:04.369Z,29.69
2018-05-31T11:40:30.764Z,29.88
2018-05-31T11:42:57.644Z,29.66
2018-05-31T11:45:24.157Z,29.51
2018-05-31T11:47:50.679Z,29.67
2018-05-31T11:50:17.475Z,29.65
2018-05-31T11:52:43.959Z,29.72
2018-05-31T11:55:10.669Z,29.66
2018-05-31T11:57:37.413Z,29.74
2018-05-31T12:00:04.073Z,29.74
2018-05-31T12:02:30.757Z,29.77
2018-05-31T12:04:57.332Z,29.76
2018-05-31T12:07:23.725Z,29.61
2018-05-31T12:09:50.392Z,29.77
2018-05-31T12:12:16.890Z,29.90
2018-05-31T12:14:43.696Z,29.87
2018-05-31T12:17:10.445Z,29.90
2018-05-31T12:19:36.983Z,29.84
2018-05-31T12:22:03.761Z,29.87
2018-05-31T12:24:30.383Z,30.08
2018-05-31T12:26:57.043Z,29.92
2018-05-31T12:29:23.569Z,29.96
2018-05-31T12:31:50.002Z,30.17
2018-05-31T12:34:18.186Z,30.00
2018-05-31T12:36:44.629Z,30.00
2018-05-31T12:39:11.013Z,29.96
2018-05-31T12:41:37.502Z,29.58
2018-05-31T12:44:03.981Z,29.56
2018-05-31T12:46:30.423Z,29.79
2018-05-31T12:48:56.886Z,29.88
2018-05-31T12:51:23.315Z,29.63
2018-05-31T12:53:50.033Z,29.68
2018-05-31T12:56:16.565Z,29.55
2018-05-31T12:58:43.521Z,29.52
2018-05-31T13:01:12.623Z,29.06
2018-05-31T13:03:39.207Z,29.42
2018-05-31T13:06:05.750Z,29.37
2018-05-31T13:08:32.306Z,29.51
2018-05-31T13:10:58.851Z,29.23
2018-05-31T13:13:25.308Z,29.45
2018-05-31T13:15:53.899Z,29.56
2018-05-31T13:18:20.524Z,29.64
2018-05-31T13:20:47.171Z,29.44
2018-05-31T13:23:13.622Z,29.69
2018-05-31T13:25:41.353Z,29.44
2018-05-31T13:28:07.956Z,29.77
2018-05-31T13:30:34.809Z,29.77
2018-05-31T13:33:01.476Z,29.93
2018-05-31T13:35:30.325Z,30.22
2018-05-31T13:37:56.824Z,30.23
2018-05-31T13:40:26.938Z,30.32
2018-05-31T13:42:53.805Z,30.69
2018-05-31T13:45:20.416Z,30.58
2018-05-31T13:47:46.988Z,30.88
2018-05-31T13:52:45.392Z,30.80
2018-05-31T13:55:12.225Z,30.78
2018-05-31T13:57:40.411Z,30.90
2018-05-31T14:00:07.388Z,30.94
2018-05-31T14:02:34.206Z,30.88
2018-05-31T14:05:01.074Z,30.92
2018-05-31T14:07:27.761Z,30.83
2018-05-31T14:09:54.146Z,30.94
2018-05-31T14:12:20.978Z,31.12
2018-05-31T14:14:48.594Z,31.37
2018-05-31T14:17:15.219Z,31.12
2018-05-31T14:19:41.863Z,31.23
2018-05-31T14:22:08.572Z,31.46
2018-05-31T14:24:35.249Z,30.96
2018-05-31T14:27:01.907Z,31.18
2018-05-31T14:29:28.828Z,31.02
2018-05-31T14:31:55.496Z,31.04
2018-05-31T14:34:22.207Z,31.09
2018-05-31T14:36:48.793Z,31.20
2018-05-31T14:39:15.679Z,31.28
2018-05-31T14:41:42.267Z,30.90
2018-05-31T14:44:09.713Z,31.11
2018-05-31T14:46:37.473Z,31.06
2018-05-31T14:49:03.908Z,30.87
2018-05-31T14:51:30.681Z,30.94
2018-05-31T14:53:57.634Z,30.83
2018-05-31T14:56:24.120Z,30.75
2018-05-31T14:58:50.507Z,30.94
2018-05-31T15:01:16.940Z,30.78
2018-05-31T15:03:43.610Z,31.06
2018-05-31T15:06:10.399Z,31.02
2018-05-31T15:08:37.238Z,30.89
2018-05-31T15:11:03.859Z,31.11
2018-05-31T15:13:30.576Z,31.11
2018-05-31T15:15:57.354Z,31.07
2018-05-31T15:18:23.855Z,31.17
2018-05-31T15:20:50.287Z,31.36
2018-05-31T15:23:16.653Z,31.41
2018-05-31T15:25:43.389Z,31.55
2018-05-31T15:28:10.988Z,31.64
2018-05-31T15:30:37.469Z,31.67
2018-05-31T15:33:04.025Z,31.93
2018-05-31T15:35:30.436Z,31.93
2018-05-31T15:37:57.574Z,32.03
2018-05-31T15:40:24.055Z,31.96
2018-05-31T15:42:50.441Z,32.11
2018-05-31T15:45:16.844Z,32.17
2018-05-31T15:47:43.322Z,32.25
2018-05-31T15:50:09.841Z,32.28
2018-05-31T15:52:36.342Z,32.31
2018-05-31T15:55:02.958Z,32.38
2018-05-31T15:57:29.615Z,32.73
2018-05-31T15:59:55.953Z,32.35
2018-05-31T16:02:22.349Z,32.57
2018-05-31T16:04:48.914Z,32.51
2018-05-31T16:07:15.279Z,32.67
2018-05-31T16:09:41.781Z,32.70
2018-05-31T16:12:08.168Z,32.73
2018-05-31T16:14:34.496Z,32.82
2018-05-31T16:17:02.314Z,32.86
2018-05-31T16:19:28.796Z,32.86
2018-05-31T16:21:55.200Z,32.94
2018-05-31T16:24:21.565Z,32.84
2018-05-31T16:26:47.895Z,32.93
2018-05-31T16:29:14.337Z,33.09
2018-05-31T16:31:41.599Z,32.98
2018-05-31T16:34:07.999Z,32.96
2018-05-31T16:36:34.559Z,32.89
2018-05-31T16:39:01.742Z,33.12
2018-05-31T16:41:29.196Z,32.96
2018-05-31T16:43:55.637Z,32.67
2018-05-31T16:46:22.020Z,32.64
2018-05-31T16:48:48.395Z,32.86
2018-05-31T16:51:15.876Z,32.78
2018-05-31T16:53:42.403Z,32.83
2018-05-31T16:56:09.381Z,32.96
2018-05-31T16:58:35.780Z,32.93
2018-05-31T17:01:02.184Z,33.03
2018-05-31T17:03:28.581Z,33.05
2018-05-31T17:05:55.008Z,32.99
2018-05-31T17:08:21.529Z,32.96
2018-05-31T17:10:47.881Z,32.87
2018-05-31T17:13:15.538Z,32.75
2018-05-31T17:15:42.001Z,32.65
2018-05-31T17:18:08.683Z,32.55
2018-05-31T17:20:35.016Z,32.38
2018-05-31T17:23:01.361Z,32.37
2018-05-31T17:25:27.726Z,32.44
2018-05-31T17:27:54.476Z,32.32
2018-05-31T17:30:20.885Z,32.30
2018-05-31T17:32:47.287Z,32.28
2018-05-31T17:35:13.665Z,32.40
2018-05-31T17:37:40.023Z,32.69
2018-05-31T17:40:06.432Z,32.50
2018-05-31T17:42:32.804Z,32.55
2018-05-31T17:44:59.735Z,32.41
2018-05-31T17:47:26.089Z,32.64
2018-05-31T17:49:52.525Z,32.59
2018-05-31T17:52:18.904Z,32.75
2018-05-31T17:54:45.700Z,32.88
2018-05-31T17:57:12.182Z,33.05
2018-05-31T17:59:38.554Z,33.15
2018-05-31T18:02:05.754Z,33.01
2018-05-31T18:04:32.146Z,33.15
2018-05-31T18:06:58.539Z,33.35
2018-05-31T18:09:24.936Z,33.18
2018-05-31T18:11:51.344Z,33.25
2018-05-31T18:14:17.771Z,33.20
2018-05-31T18:16:44.101Z,33.18
2018-05-31T18:19:10.654Z,33.17
2018-05-31T18:21:37.026Z,33.15
2018-05-31T18:24:03.404Z,33.11
2018-05-31T18:26:31.096Z,33.16
2018-05-31T18:28:57.548Z,33.21
2018-05-31T18:31:23.940Z,33.18
2018-05-31T18:33:50.340Z,33.11
2018-05-31T18:36:16.759Z,33.44
2018-05-31T18:38:43.097Z,33.48
2018-05-31T18:41:09.522Z,33.61
2018-05-31T18:43:36.314Z,33.53
2018-05-31T18:46:02.636Z,33.45
2018-05-31T18:48:29.162Z,33.72
2018-05-31T18:50:55.479Z,33.70
2018-05-31T18:53:21.859Z,33.81
2018-05-31T18:55:48.196Z,33.96
2018-05-31T18:58:14.649Z,34.18
2018-05-31T19:00:41.379Z,34.22
2018-05-31T19:03:08.222Z,34.12
2018-05-31T19:05:34.747Z,34.09
2018-05-31T19:08:01.102Z,34.07
2018-05-31T19:10:27.528Z,34.06
2018-05-31T19:12:55.187Z,33.86
2018-05-31T19:15:21.769Z,34.10
2018-05-31T19:17:47.892Z,34.41
2018-05-31T19:20:14.959Z,34.10
2018-05-31T19:22:41.279Z,34.18
2018-05-31T19:25:07.657Z,34.35
2018-05-31T19:27:33.995Z,34.48
2018-05-31T19:30:00.361Z,34.41
2018-05-31T19:32:26.869Z,34.44
2018-05-31T19:34:54.435Z,34.41
2018-05-31T19:37:20.813Z,34.49
2018-05-31T19:39:47.238Z,34.60
2018-05-31T19:42:13.554Z,34.71
2018-05-31T19:44:40.047Z,34.74
2018-05-31T19:47:06.385Z,34.93
2018-05-31T19:49:32.916Z,34.91
2018-05-31T19:52:00.257Z,34.99
2018-05-31T19:54:26.632Z,35.11
2018-05-31T19:56:53.044Z,35.14
2018-05-31T19:59:19.424Z,35.14
2018-05-31T20:01:45.792Z,35.18
2018-05-31T20:04:12.156Z,35.18
2018-05-31T20:06:38.552Z,35.34
2018-05-31T20:09:05.426Z,35.53
2018-05-31T20:11:31.772Z,35.23
2018-05-31T20:13:58.155Z,35.37
2018-05-31T20:16:24.858Z,35.31
2018-05-31T20:18:51.239Z,35.32
2018-05-31T20:21:17.729Z,35.45
2018-05-31T20:23:44.272Z,35.46
2018-05-31T20:26:10.866Z,35.52
2018-05-31T20:28:37.249Z,35.69
2018-05-31T20:31:03.585Z,35.68
2018-05-31T20:33:30.021Z,35.74
2018-05-31T20:35:56.692Z,35.65
2018-05-31T20:38:23.088Z,35.56
2018-05-31T20:40:49.457Z,35.66
2018-05-31T20:43:16.082Z,35.72
2018-05-31T20:45:42.586Z,35.71
2018-05-31T20:48:08.998Z,35.72
2018-05-31T20:50:35.392Z,35.80
2018-05-31T20:53:02.644Z,35.82
2018-05-31T20:55:29.270Z,35.92
2018-05-31T20:57:55.623Z,35.93
2018-05-31T21:00:21.983Z,35.78
2018-05-31T21:02:48.358Z,35.44
2018-05-31T21:05:14.737Z,35.36
2018-05-31T21:07:41.121Z,35.31
2018-05-31T21:10:07.525Z,35.41
2018-05-31T21:12:34.098Z,35.48
2018-05-31T21:15:00.686Z,35.57
2018-05-31T21:17:27.027Z,35.47
2018-05-31T21:19:53.457Z,35.67
2018-05-31T21:22:19.784Z,35.69
2018-05-31T21:24:46.102Z,35.70
2018-05-31T21:27:12.442Z,35.73
2018-05-31T21:29:38.835Z,35.81
2018-05-31T21:32:05.173Z,35.83
2018-05-31T21:34:31.488Z,35.85
2018-05-31T21:36:57.867Z,35.79
2018-05-31T21:39:24.256Z,35.88
2018-05-31T21:41:50.638Z,35.89
2018-05-31T21:44:18.633Z,35.88
2018-05-31T21:46:45.012Z,36.03
2018-05-31T21:49:11.415Z,36.09
2018-05-31T21:51:37.792Z,36.10
2018-05-31T21:54:04.191Z,36.02
2018-05-31T21:56:31.332Z,36.37
2018-05-31T21:58:57.713Z,36.09
2018-05-31T22:01:24.042Z,36.11
2018-05-31T22:03:51.338Z,36.28
2018-05-31T22:06:17.672Z,36.33
2018-05-31T22:08:44.050Z,36.23
2018-05-31T22:11:10.424Z,36.19
2018-05-31T22:13:37.169Z,36.16
2018-05-31T22:16:03.712Z,36.22
2018-05-31T22:18:30.093Z,36.28
2018-05-31T22:20:56.459Z,36.40
2018-05-31T22:23:22.792Z,36.38
2018-05-31T22:25:49.160Z,36.34
2018-05-31T22:28:15.671Z,36.36
2018-05-31T22:30:42.028Z,36.40
2018-05-31T22:33:08.492Z,36.59
2018-05-31T22:35:34.864Z,36.36
2018-05-31T22:38:01.203Z,36.42
2018-05-31T22:40:27.580Z,36.43
2018-05-31T22:42:53.912Z,36.56
2018-05-31T22:45:20.237Z,36.44
2018-05-31T22:47:46.601Z,36.73
2018-05-31T22:50:13.019Z,36.79
2018-05-31T22:52:39.352Z,36.72
2018-05-31T22:55:05.820Z,36.58
2018-05-31T22:57:32.216Z,36.64
2018-05-31T22:59:58.588Z,36.63
2018-05-31T23:02:24.981Z,36.66
2018-05-31T23:04:51.361Z,36.88
2018-05-31T23:07:17.692Z,36.87
2018-05-31T23:09:44.063Z,36.72
2018-05-31T23:12:11.408Z,36.74
2018-05-31T23:14:37.933Z,36.89
2018-05-31T23:17:04.444Z,36.80
2018-05-31T23:19:30.788Z,36.92
2018-05-31T23:21:57.146Z,36.83
2018-05-31T23:24:23.747Z,36.88
2018-05-31T23:26:50.123Z,36.81
2018-05-31T23:29:17.589Z,36.92
2018-05-31T23:31:43.956Z,37.03
2018-05-31T23:34:10.339Z,37.05
2018-05-31T23:36:36.672Z,37.08
2018-05-31T23:39:03.112Z,37.01
2018-05-31T23:41:30.051Z,37.04
2018-05-31T23:43:56.463Z,37.00
2018-05-31T23:46:22.866Z,36.97
2018-05-31T23:48:49.219Z,37.21
2018-05-31T23:51:16.432Z,37.08
2018-05-31T23:53:42.813Z,37.08
2018-05-31T23:56:11.260Z,37.04
2018-05-31T23:58:37.702Z,37.11
